Time;durP1;ratioP1;P1;durP2;ratioP2;P2;SDS_P1;SDS_P2;PMS_P1;PMS_P2;Temp;Humidity;BMP_temperature;BMP_pressure;BME280_temperature;BME280_humidity;BME280_pressure;Samples;Min_cycle;Max_cycle;Signal;HPM_P1;HPM_P2
2021/10/22 00:02:09;;;;;;;5.65;1.50;;;;;;;11.32;53.17;98280.95;4174275;84;21043;-82
2021/10/22 00:08:11;;;;;;;4.40;1.55;;;;;;;11.43;53.12;98296.19;4168170;84;21190;-82
2021/10/22 00:14:15;;;;;;;5.83;1.05;;;;;;;11.44;52.77;98318.88;4166229;83;21051;-82
2021/10/22 00:20:17;;;;;;;6.20;1.00;;;;;;;11.42;53.13;98315.16;4178849;83;21077;-82
2021/10/22 00:26:18;;;;;;;8.60;1.85;;;;;;;11.40;52.85;98322.98;4174773;83;21038;-83
2021/10/22 00:32:19;;;;;;;4.05;1.30;;;;;;;11.40;52.78;98318.11;4177120;83;21012;-82
2021/10/22 00:38:21;;;;;;;5.65;1.60;;;;;;;11.35;53.32;98330.27;4170144;83;21438;-82
2021/10/22 00:44:22;;;;;;;8.38;1.40;;;;;;;11.35;53.24;98323.41;4207722;83;21526;-82
2021/10/22 00:50:23;;;;;;;5.53;1.55;;;;;;;11.35;53.25;98316.56;4222164;83;21037;-81
2021/10/22 00:56:25;;;;;;;2.40;0.70;;;;;;;11.30;53.41;98321.66;4216954;83;21046;-80
2021/10/22 01:02:26;;;;;;;18.90;1.40;;;;;;;11.32;52.92;98310.51;4218146;83;21038;-81
2021/10/22 01:08:32;;;;;;;4.37;1.07;;;;;;;11.45;53.07;98316.34;4215982;81;21539;-81
2021/10/22 01:14:33;;;;;;;5.12;0.93;;;;;;;11.46;52.72;98322.80;4214184;83;21038;-82
2021/10/22 01:20:40;;;;;;;4.90;1.40;;;;;;;11.39;53.30;98332.39;4217339;83;21491;-81
2021/10/22 01:26:43;;;;;;;6.50;1.67;;;;;;;11.28;53.63;98345.34;4215569;82;21030;-82
2021/10/22 01:32:45;;;;;;;4.12;1.20;;;;;;;11.21;54.04;98344.58;4218062;83;21042;-81
2021/10/22 01:38:46;;;;;;;6.83;1.67;;;;;;;11.21;54.01;98350.84;4217351;81;21069;-81
2021/10/22 01:44:48;;;;;;;2.75;1.10;;;;;;;11.25;53.92;98352.19;4220635;83;21520;-82
2021/10/22 01:50:50;;;;;;;10.90;2.17;;;;;;;11.21;54.34;98340.47;4215624;83;21047;-82
2021/10/22 01:56:51;;;;;;;4.42;1.47;;;;;;;11.19;54.41;98334.59;4218122;83;20994;-81
2021/10/22 02:02:53;;;;;;;4.35;1.15;;;;;;;11.04;54.83;98351.62;4208699;83;21026;-82
2021/10/22 02:08:54;;;;;;;2.87;0.85;;;;;;;10.95;55.29;98353.41;4218062;83;21058;-82
2021/10/22 02:14:55;;;;;;;4.45;1.25;;;;;;;10.99;55.27;98360.27;4213351;83;21035;-81
2021/10/22 02:20:57;;;;;;;3.50;1.27;;;;;;;10.93;55.89;98355.75;4207519;83;21599;-82
2021/10/22 02:26:58;;;;;;;2.87;0.95;;;;;;;10.79;55.98;98342.06;4213207;83;21645;-82
2021/10/22 02:33:00;;;;;;;7.35;1.00;;;;;;;10.70;56.29;98354.58;4213709;83;21083;-82
2021/10/22 02:39:04;;;;;;;6.42;1.42;;;;;;;10.70;56.35;98356.73;4208100;83;21087;-81
2021/10/22 02:45:06;;;;;;;5.00;1.10;;;;;;;10.68;56.77;98350.86;4168728;83;21515;-82
2021/10/22 02:51:07;;;;;;;3.35;0.90;;;;;;;10.68;56.85;98350.86;4168261;84;21007;-82
2021/10/22 02:57:09;;;;;;;1.65;0.50;;;;;;;10.63;57.04;98358.70;4173913;83;22305;-82
2021/10/22 03:03:10;;;;;;;4.85;0.90;;;;;;;10.60;57.26;98361.61;4167349;83;21054;-82
2021/10/22 03:09:11;;;;;;;4.22;0.90;;;;;;;10.57;57.60;98363.76;4168412;84;21023;-82
2021/10/22 03:15:14;;;;;;;4.78;1.00;;;;;;;10.61;57.87;98365.92;4177466;83;21047;-83
2021/10/22 03:21:16;;;;;;;5.45;1.35;;;;;;;10.60;58.10;98374.53;4175165;84;21757;-84
2021/10/22 03:27:20;;;;;;;4.80;0.82;;;;;;;10.55;58.10;98392.13;4173545;83;21336;-81
2021/10/22 03:33:22;;;;;;;3.37;0.98;;;;;;;10.50;58.52;98398.55;4171509;83;21016;-82
2021/10/22 03:39:23;;;;;;;4.95;1.20;;;;;;;10.49;58.59;98410.07;4171706;84;21191;-82
2021/10/22 03:45:29;;;;;;;4.95;1.00;;;;;;;10.47;58.82;98426.12;4164650;84;21492;-82
2021/10/22 03:51:28;;;;;;;4.72;1.00;;;;;;;10.51;58.94;98450.16;4171091;84;21023;-81
2021/10/22 03:57:29;;;;;;;2.40;0.90;;;;;;;10.55;59.02;98465.22;4176503;83;21023;-81
2021/10/22 04:03:31;;;;;;;6.72;1.30;;;;;;;10.56;59.38;98470.30;4176200;84;21008;-81
2021/10/22 04:09:33;;;;;;;7.53;1.55;;;;;;;10.57;59.83;98472.47;4171283;84;21039;-81
2021/10/22 04:15:35;;;;;;;4.53;1.32;;;;;;;10.54;59.71;98486.93;4178567;84;21083;-83
2021/10/22 04:21:36;;;;;;;7.95;2.65;;;;;;;10.52;60.04;98505.08;4178810;84;21511;-81
2021/10/22 04:27:37;;;;;;;5.28;1.62;;;;;;;10.50;60.24;98514.27;4177442;83;21701;-81
2021/10/22 04:33:39;;;;;;;7.03;1.92;;;;;;;10.46;60.30;98517.56;4179567;83;21098;-82
2021/10/22 04:46:01;;;;;;;4.50;2.25;;;;;;;10.31;60.44;98547.98;4215393;83;21079;-81
2021/10/22 04:52:03;;;;;;;4.67;2.15;;;;;;;10.26;60.76;98555.19;4188127;83;21047;-81
2021/10/22 04:58:09;;;;;;;5.17;1.98;;;;;;;10.20;60.78;98562.19;4209482;81;21042;-81
2021/10/22 05:04:11;;;;;;;6.85;1.92;;;;;;;10.09;61.18;98562.71;4218615;83;21066;-81
2021/10/22 05:10:12;;;;;;;6.85;2.12;;;;;;;9.99;61.50;98566.15;4210188;83;21046;-81
2021/10/22 05:16:20;;;;;;;8.20;2.30;;;;;;;9.88;61.84;98567.42;4223805;83;21508;-81
2021/10/22 05:22:31;;;;;;;7.05;2.22;;;;;;;9.80;62.00;98578.70;4217033;83;21063;-83
2021/10/22 05:28:39;;;;;;;3.92;2.10;;;;;;;9.71;62.34;98576.89;4213919;83;21034;-81
2021/10/22 05:34:41;;;;;;;5.00;1.95;;;;;;;9.62;62.51;98591.43;4213464;83;21026;-82
2021/10/22 05:40:42;;;;;;;9.28;2.47;;;;;;;9.48;62.85;98603.83;4197551;83;21016;-82
2021/10/22 05:46:45;;;;;;;3.17;1.70;;;;;;;9.43;63.04;98611.56;4166527;84;21019;-82
2021/10/22 05:52:47;;;;;;;6.95;2.62;;;;;;;9.33;63.48;98636.25;4171027;84;21052;-82
2021/10/22 05:58:48;;;;;;;5.22;2.12;;;;;;;9.27;63.95;98644.58;4168486;83;21055;-82
2021/10/22 06:04:49;;;;;;;6.92;1.70;;;;;;;9.22;63.86;98657.20;4169572;84;21549;-81
2021/10/22 06:10:51;;;;;;;4.33;1.72;;;;;;;9.20;64.12;98676.50;4168256;84;21039;-82
2021/10/22 06:16:52;;;;;;;9.20;1.90;;;;;;;9.16;64.28;98688.73;4171388;83;21024;-81
2021/10/22 06:29:13;;;;;;;7.62;1.65;;;;;;;9.25;64.58;98720.67;4170317;83;21035;-81
2021/10/22 06:35:15;;;;;;;5.25;1.75;;;;;;;9.25;64.52;98724.77;4170207;83;21126;-82
2021/10/22 06:41:17;;;;;;;8.08;2.42;;;;;;;9.35;64.72;98731.48;4087729;85;21113;-82
2021/10/22 06:47:19;;;;;;;8.85;2.10;;;;;;;9.45;64.86;98743.92;4183804;83;21020;-83
2021/10/22 06:53:20;;;;;;;5.92;2.17;;;;;;;9.57;64.89;98744.23;4174438;83;21022;-82
2021/10/22 06:59:22;;;;;;;5.80;2.10;;;;;;;9.72;64.79;98736.97;4185745;83;21562;-81
2021/10/22 07:11:27;;;;;;;3.08;1.30;;;;;;;10.42;64.76;98744.47;4186788;83;21070;-81
2021/10/22 07:18:02;;;;;;;;;;;;;;;;;;;;;
2021/10/22 07:24:06;;;;;;;7.67;1.25;;;;;;;11.18;63.03;98744.77;4177133;83;21611;-82
2021/10/22 07:30:06;;;;;;;4.17;1.00;;;;;;;11.61;62.08;98774.48;4187066;83;21071;-81
2021/10/22 07:36:12;;;;;;;4.33;1.30;;;;;;;11.74;60.91;98764.77;4185104;83;21597;-82
2021/10/22 07:42:18;;;;;;;7.25;1.30;;;;;;;11.87;60.87;98770.09;4183808;83;21682;-84
2021/10/22 07:48:24;;;;;;;3.70;0.93;;;;;;;11.96;60.14;98771.30;4164117;83;21082;-82
2021/10/22 07:54:46;;;;;;;8.03;1.30;;;;;;;12.06;59.39;98769.14;4169881;84;21047;-83
2021/10/22 08:00:52;;;;;;;7.58;1.72;;;;;;;12.23;58.20;98779.95;4066152;83;21503;-82
2021/10/22 08:07:00;;;;;;;10.50;1.42;;;;;;;12.53;56.49;98785.25;4142255;84;21182;-83
2021/10/22 08:13:11;;;;;;;6.75;1.32;;;;;;;13.18;56.89;98789.52;4174568;84;21056;-81
2021/10/22 08:19:37;;;;;;;5.87;1.25;;;;;;;13.75;55.69;98806.02;4171962;84;21114;-82
2021/10/22 08:25:39;;;;;;;5.25;1.32;;;;;;;14.53;55.09;98801.62;3908882;90;21043;-82
2021/10/22 08:31:40;;;;;;;7.05;1.10;;;;;;;15.16;53.51;98798.28;3946221;89;21248;-81
2021/10/22 08:37:56;;;;;;;10.03;2.05;;;;;;;15.49;52.62;98797.55;3887661;90;21033;-82
2021/10/22 08:43:59;;;;;;;6.80;1.30;;;;;;;15.91;51.41;98789.94;3881280;89;21071;-83
2021/10/22 08:50:07;;;;;;;10.38;3.35;;;;;;;16.50;50.79;98789.69;3879893;90;21152;-82
2021/10/22 08:56:08;;;;;;;6.60;1.98;;;;;;;16.92;49.22;98784.23;3877572;90;21127;-82
2021/10/22 09:02:22;;;;;;;5.70;0.90;;;;;;;17.35;48.40;98785.62;3930872;90;21107;-82
2021/10/22 09:08:41;;;;;;;12.30;1.10;;;;;;;17.64;46.95;98794.16;3914826;89;21088;-83
2021/10/22 09:15:03;;;;;;;6.80;1.30;;;;;;;17.77;46.37;98797.25;3904700;90;21795;-83
2021/10/22 09:21:03;;;;;;;5.62;1.35;;;;;;;18.01;44.52;98797.31;3941852;88;21019;-82
2021/10/22 09:27:04;;;;;;;15.60;1.45;;;;;;;18.30;44.67;98809.93;4002520;88;21562;-83
2021/10/22 09:33:18;;;;;;;5.45;1.22;;;;;;;18.38;42.55;98812.16;3905565;89;21123;-83
2021/10/22 09:39:25;;;;;;;6.35;1.07;;;;;;;18.79;42.69;98824.65;3920330;89;21089;-81
2021/10/22 09:45:28;;;;;;;10.98;1.50;;;;;;;18.71;41.77;98831.73;3995175;87;21075;-83
2021/10/22 09:51:38;;;;;;;14.85;1.77;;;;;;;18.86;41.06;98823.86;3995138;88;21116;-82
2021/10/22 09:57:43;;;;;;;6.83;1.57;;;;;;;19.05;40.11;98822.98;4000292;87;21149;-84
2021/10/22 10:03:45;;;;;;;4.35;0.90;;;;;;;19.11;39.55;98819.06;3910379;89;21048;-82
2021/10/22 10:09:54;;;;;;;3.60;1.10;;;;;;;19.06;38.80;98821.76;3976043;88;21666;-82
2021/10/22 10:15:59;;;;;;;8.55;1.05;;;;;;;19.08;38.83;98806.85;3953537;89;21050;-83
2021/10/22 10:22:09;;;;;;;10.58;1.10;;;;;;;19.11;38.89;98805.19;3932257;89;21071;-81
2021/10/22 10:28:10;;;;;;;2.58;0.80;;;;;;;18.84;39.39;98800.56;3953521;89;21635;-83
2021/10/22 10:34:43;;;;;;;4.90;1.20;;;;;;;18.31;39.13;98787.34;3900033;89;21621;-82
2021/10/22 10:40:45;;;;;;;5.30;0.95;;;;;;;17.48;39.04;98783.03;3932541;88;21197;-83
2021/10/22 10:46:48;;;;;;;3.60;1.00;;;;;;;16.80;39.33;98768.23;3957634;88;21140;-82
2021/10/22 10:52:56;;;;;;;14.47;1.40;;;;;;;16.49;39.69;98762.64;3925712;90;21131;-83
2021/10/22 10:58:58;;;;;;;4.85;1.10;;;;;;;16.30;39.94;98754.27;3913766;90;21100;-83
2021/10/22 11:04:59;;;;;;;4.83;0.90;;;;;;;16.35;39.76;98747.65;3911597;90;21063;-82
2021/10/22 11:11:38;;;;;;;;;;;;;;;;;;;;;
2021/10/22 11:17:44;;;;;;;3.35;0.90;;;;;;;15.78;39.55;98738.66;3995250;87;21134;-83
2021/10/22 11:23:46;;;;;;;3.20;0.98;;;;;;;15.50;39.80;98729.38;3999802;87;21547;-83
2021/10/22 11:29:54;;;;;;;3.77;1.00;;;;;;;15.25;39.85;98726.11;3994789;88;21104;-83
2021/10/22 11:35:56;;;;;;;7.72;0.95;;;;;;;14.99;39.67;98706.11;3906055;89;21059;-82
2021/10/22 11:42:30;;;;;;;6.67;1.00;;;;;;;14.57;39.90;98703.80;3931248;88;21599;-82
2021/10/22 11:48:47;;;;;;;;;;;;;;;;;;;;;
2021/10/22 11:54:55;;;;;;;6.70;1.20;;;;;;;14.34;40.63;98692.02;3974002;88;21078;-83
2021/10/22 12:00:58;;;;;;;4.53;1.10;;;;;;;14.22;40.92;98678.70;3977005;88;21092;-85
2021/10/22 12:07:12;;;;;;;3.58;1.30;;;;;;;14.09;41.82;98661.89;3973062;88;21012;-82
2021/10/22 12:13:28;;;;;;;4.10;0.72;;;;;;;14.05;42.36;98670.79;3991783;87;21099;-82
2021/10/22 12:19:33;;;;;;;1.37;0.68;;;;;;;14.00;42.27;98663.58;3995155;87;21073;-81
2021/10/22 12:25:48;;;;;;;2.45;0.72;;;;;;;13.89;42.46;98665.01;3999034;87;21996;-82
2021/10/22 12:31:54;;;;;;;2.80;0.80;;;;;;;13.90;42.09;98656.17;3908307;89;21131;-81
2021/10/22 12:38:05;;;;;;;5.23;1.87;;;;;;;13.82;42.14;98641.69;3907641;89;21083;-81
2021/10/22 12:44:12;;;;;;;5.72;1.65;;;;;;;13.74;41.94;98640.75;3944547;89;21125;-82
2021/10/22 12:50:18;;;;;;;4.78;0.93;;;;;;;13.71;41.65;98626.44;3952579;89;21594;-82
2021/10/22 12:56:28;;;;;;;3.85;1.10;;;;;;;13.66;41.99;98628.23;3940392;89;21107;-81
2021/10/22 13:02:31;;;;;;;4.40;1.00;;;;;;;13.59;41.72;98620.81;3958841;89;21144;-82
2021/10/22 13:08:48;;;;;;;4.85;1.12;;;;;;;13.56;41.65;98627.12;3945995;89;21068;-83
2021/10/22 13:21:17;;;;;;;8.00;0.93;;;;;;;13.57;41.75;98625.16;4008761;88;21035;-82
2021/10/22 13:27:18;;;;;;;1.87;0.90;;;;;;;13.50;41.48;98619.11;3908492;89;21072;-81
2021/10/22 13:33:27;;;;;;;3.98;1.12;;;;;;;13.42;41.45;98622.33;3955371;88;21091;-82
2021/10/22 13:39:22;;;;;;;8.13;1.07;;;;;;;13.34;41.86;98615.30;3884236;90;21043;-82
2021/10/22 13:45:23;;;;;;;6.90;1.17;;;;;;;13.28;42.05;98620.42;3937802;89;21062;-82
2021/10/22 13:51:37;;;;;;;5.80;0.95;;;;;;;13.19;42.23;98625.58;3945044;89;21034;-81
2021/10/22 13:58:01;;;;;;;10.88;1.35;;;;;;;13.12;42.42;98623.47;3889528;89;21082;-82
2021/10/22 14:03:51;;;;;;;10.48;1.10;;;;;;;12.96;42.75;98624.48;3957537;88;21063;-82
2021/10/22 14:09:54;;;;;;;6.45;1.67;;;;;;;12.88;42.87;98629.81;3903825;89;21110;-82
2021/10/22 14:16:09;;;;;;;5.62;1.12;;;;;;;12.83;42.89;98635.13;3901005;90;21528;-81
2021/10/22 14:34:33;;;;;;;4.05;1.17;;;;;;;12.49;43.13;98643.09;3896945;90;21050;-81
2021/10/22 14:40:35;;;;;;;6.12;1.30;;;;;;;12.37;43.42;98642.11;3888370;89;21058;-82
2021/10/22 14:46:47;;;;;;;13.85;3.00;;;;;;;12.26;43.29;98646.83;3905655;90;21099;-81
2021/10/22 14:58:59;;;;;;;9.48;1.15;;;;;;;12.00;43.23;98658.23;3950802;89;21101;-82
2021/10/22 15:04:59;;;;;;;2.90;1.17;;;;;;;11.78;43.62;98652.53;3907719;89;21593;-81
2021/10/22 15:11:01;;;;;;;5.53;1.47;;;;;;;11.63;43.71;98651.54;3902112;90;21645;-82
2021/10/22 15:17:12;;;;;;;7.40;1.67;;;;;;;11.51;44.05;98662.86;3852893;91;21072;-81
2021/10/22 15:23:14;;;;;;;4.30;1.70;;;;;;;11.39;44.23;98658.51;3894470;89;21095;-82
2021/10/22 15:29:15;;;;;;;7.80;1.72;;;;;;;11.33;44.43;98658.70;3879404;90;21538;-82
2021/10/22 15:35:17;;;;;;;3.60;1.82;;;;;;;11.19;44.89;98668.25;3946803;89;21075;-81
2021/10/22 15:41:18;;;;;;;6.00;2.35;;;;;;;11.12;45.07;98675.66;3895704;90;21568;-82
2021/10/22 15:47:19;;;;;;;8.55;2.40;;;;;;;11.01;45.35;98679.70;3955553;88;21086;-82
2021/10/22 15:53:25;;;;;;;7.35;2.60;;;;;;;10.95;45.68;98686.15;3894310;89;21135;-82
2021/10/22 15:59:27;;;;;;;10.80;3.77;;;;;;;10.84;45.91;98692.73;3907487;89;21118;-82
2021/10/22 16:05:29;;;;;;;8.08;3.58;;;;;;;10.70;46.46;98688.55;3843263;88;10000400;-81
2021/10/22 16:11:52;;;;;;;7.78;2.77;;;;;;;10.56;46.97;98692.57;3874642;90;21102;-82
2021/10/22 16:18:00;;;;;;;8.43;3.12;;;;;;;10.45;47.60;98682.14;3931587;89;22314;-82
2021/10/22 16:23:54;;;;;;;6.37;3.10;;;;;;;10.28;47.85;98691.80;3964670;88;21106;-82
2021/10/22 16:29:57;;;;;;;8.43;3.92;;;;;;;10.11;48.42;98696.56;3998086;88;21124;-81
2021/10/22 16:36:01;;;;;;;10.43;4.25;;;;;;;9.94;48.87;98703.21;3922047;89;21039;-82
2021/10/22 16:42:06;;;;;;;6.97;2.95;;;;;;;9.86;49.44;98720.14;3993722;87;21141;-83
2021/10/22 16:48:08;;;;;;;10.70;3.77;;;;;;;9.76;50.94;98723.55;3981959;87;21112;-82
2021/10/22 16:54:10;;;;;;;15.13;5.83;;;;;;;9.71;50.22;98721.75;4000251;87;21087;-81
2021/10/22 17:00:11;;;;;;;18.32;7.22;;;;;;;9.63;50.52;98711.33;3986193;88;21108;-82
2021/10/22 17:06:13;;;;;;;18.85;8.45;;;;;;;9.54;50.99;98712.19;4002078;88;21070;-82
2021/10/22 17:12:18;;;;;;;23.32;8.45;;;;;;;9.35;52.11;98719.19;3999784;87;21063;-82
2021/10/22 17:18:17;;;;;;;19.17;8.20;;;;;;;9.25;51.96;98715.77;3909104;89;21060;-82
2021/10/22 17:24:18;;;;;;;17.60;7.80;;;;;;;9.14;52.30;98721.12;3926748;89;21514;-81
2021/10/22 17:30:26;;;;;;;15.72;6.83;;;;;;;8.99;52.88;98727.54;3937065;89;21084;-82
2021/10/22 17:36:27;;;;;;;19.42;7.45;;;;;;;9.00;52.67;98735.16;3797020;89;10000111;-81
2021/10/22 17:42:29;;;;;;;17.70;7.10;;;;;;;8.95;53.13;98741.73;3995501;88;21115;-82
2021/10/22 17:48:30;;;;;;;22.10;8.78;;;;;;;8.80;53.52;98735.09;3937549;89;21023;-81
2021/10/22 17:54:32;;;;;;;20.20;8.85;;;;;;;8.68;54.21;98742.91;3984699;87;21006;-82
2021/10/22 18:00:34;;;;;;;20.08;9.03;;;;;;;8.64;54.74;98749.47;3930950;88;21504;-81
2021/10/22 18:06:36;;;;;;;17.87;9.18;;;;;;;8.60;54.57;98762.26;3947133;88;21066;-81
2021/10/22 18:12:38;;;;;;;21.97;10.50;;;;;;;8.47;55.13;98763.63;3933869;89;21590;-81
2021/10/22 18:18:39;;;;;;;20.23;9.63;;;;;;;8.25;55.74;98774.78;3950945;89;21134;-83
2021/10/22 18:24:40;;;;;;;19.10;9.65;;;;;;;8.10;56.13;98778.38;4001959;87;21063;-82
2021/10/22 18:30:44;;;;;;;20.52;9.20;;;;;;;8.09;56.91;98790.44;3872271;90;21066;-82
2021/10/22 18:36:46;;;;;;;17.40;7.90;;;;;;;8.06;57.00;98791.73;3941740;89;21197;-82
2021/10/22 18:42:48;;;;;;;21.15;7.87;;;;;;;7.86;56.98;98794.50;3958202;88;21484;-82
2021/10/22 18:49:04;;;;;;;13.68;7.00;;;;;;;7.82;57.95;98807.28;3873970;90;21133;-82
2021/10/22 18:54:56;;;;;;;16.85;6.72;;;;;;;7.74;58.19;98817.83;3932320;89;21138;-81
2021/10/22 19:00:58;;;;;;;16.77;6.37;;;;;;;7.56;58.44;98818.05;3956773;88;21080;-82
2021/10/22 19:06:59;;;;;;;19.73;5.97;;;;;;;7.67;58.31;98833.26;3955450;88;21399;-82
2021/10/22 19:13:00;;;;;;;8.68;3.70;;;;;;;7.84;57.64;98832.81;3956999;88;21013;-82
2021/10/22 19:19:04;;;;;;;10.68;4.40;;;;;;;8.03;57.16;98845.05;3955905;88;21095;-82
2021/10/22 19:25:07;;;;;;;9.08;3.75;;;;;;;8.13;56.96;98851.26;3964526;88;21055;-82
2021/10/22 19:31:10;;;;;;;11.73;4.40;;;;;;;8.25;56.49;98859.33;4001699;87;21091;-81
2021/10/22 19:37:12;;;;;;;8.28;3.50;;;;;;;8.28;56.28;98861.89;3998856;87;21063;-81
2021/10/22 19:43:13;;;;;;;9.80;3.92;;;;;;;8.31;55.92;98853.77;3941423;89;21162;-83
2021/10/22 19:49:15;;;;;;;12.68;3.87;;;;;;;8.32;55.58;98860.80;3941491;89;22260;-81
2021/10/22 19:55:16;;;;;;;8.00;3.37;;;;;;;8.33;55.51;98859.63;3876017;90;21601;-81
2021/10/22 20:01:20;;;;;;;8.75;3.00;;;;;;;8.31;55.27;98861.16;3934138;89;21093;-81
2021/10/22 20:07:21;;;;;;;15.00;3.87;;;;;;;8.32;55.12;98857.27;3937372;89;21129;-81
2021/10/22 20:13:23;;;;;;;11.65;2.62;;;;;;;8.38;54.75;98870.25;3873897;90;21079;-81
2021/10/22 20:19:25;;;;;;;10.18;3.05;;;;;;;8.48;54.34;98864.20;3874420;90;21816;-81
2021/10/22 20:25:27;;;;;;;8.93;2.25;;;;;;;8.59;54.01;98879.38;3896274;89;22276;-81
2021/10/22 20:31:29;;;;;;;6.42;2.00;;;;;;;8.61;53.56;98874.36;3911484;89;21643;-81
2021/10/22 20:37:47;;;;;;;9.38;2.25;;;;;;;8.69;53.00;98863.17;3976476;88;21119;-82
2021/10/22 20:43:43;;;;;;;7.33;1.75;;;;;;;8.70;52.70;98868.87;3982550;88;21055;-81
2021/10/22 21:02:24;;;;;;;11.63;1.82;;;;;;;8.67;52.39;98873.69;4018769;87;21027;-80
2021/10/22 21:08:26;;;;;;;9.98;1.60;;;;;;;8.73;51.75;98892.70;3926389;88;21645;-81
2021/10/22 21:14:27;;;;;;;5.53;1.60;;;;;;;8.83;50.39;98886.61;3909608;89;21140;-81
2021/10/22 21:20:32;;;;;;;12.90;2.30;;;;;;;8.94;50.65;98894.39;3938019;89;21586;-81
2021/10/22 21:26:37;;;;;;;17.30;3.30;;;;;;;8.98;50.87;98893.08;3878971;89;21039;-82
2021/10/22 21:32:51;;;;;;;11.60;2.10;;;;;;;8.96;50.37;98898.91;3907469;89;21136;-81
2021/10/22 21:38:54;;;;;;;6.28;2.10;;;;;;;8.93;50.67;98904.31;3866749;90;21464;-83
2021/10/22 21:44:57;;;;;;;6.35;2.00;;;;;;;8.91;50.53;98906.04;3866051;90;21700;-83
2021/10/22 21:50:59;;;;;;;4.42;1.82;;;;;;;8.94;49.89;98914.09;3850401;91;21244;-83
2021/10/22 21:57:06;;;;;;;7.53;1.80;;;;;;;8.96;49.99;98918.59;3914162;89;21145;-82
2021/10/22 22:03:09;;;;;;;6.67;2.00;;;;;;;8.94;49.85;98926.37;3975423;88;21031;-82
2021/10/22 22:09:13;;;;;;;4.35;1.65;;;;;;;8.90;50.20;98938.60;3975051;88;21083;-82
2021/10/22 22:15:16;;;;;;;6.83;1.95;;;;;;;8.85;50.39;98942.99;3973724;88;21116;-81
2021/10/22 22:21:18;;;;;;;5.83;1.77;;;;;;;8.77;50.86;98941.30;3971122;88;21051;-81
2021/10/22 22:27:20;;;;;;;8.55;2.33;;;;;;;8.74;50.83;98943.39;3976017;88;21048;-80
2021/10/22 22:33:21;;;;;;;9.65;2.00;;;;;;;8.79;51.14;98940.36;3936921;88;21079;-80
2021/10/22 22:39:22;;;;;;;5.47;1.70;;;;;;;8.84;50.82;98934.61;3997329;87;21561;-81
2021/10/22 22:45:24;;;;;;;6.00;1.50;;;;;;;8.89;51.08;98930.77;3993416;88;21046;-81
2021/10/22 22:51:41;;;;;;;9.53;2.05;;;;;;;8.86;51.30;98941.06;3903473;90;21119;-80
2021/10/22 22:57:39;;;;;;;9.98;1.80;;;;;;;8.73;51.47;98942.39;3993649;87;21648;-81
2021/10/22 23:03:40;;;;;;;8.53;1.80;;;;;;;8.65;51.92;98942.05;3996290;87;22172;-81
2021/10/22 23:09:41;;;;;;;6.55;1.90;;;;;;;8.59;51.92;98948.39;3990004;88;21039;-81
2021/10/22 23:15:44;;;;;;;5.95;1.77;;;;;;;8.56;52.03;98941.50;3990844;88;21051;-81
2021/10/22 23:21:45;;;;;;;8.93;2.08;;;;;;;8.54;52.33;98939.70;3909380;89;21063;-80
2021/10/22 23:27:46;;;;;;;11.45;2.05;;;;;;;8.55;52.66;98958.44;3938615;89;21531;-80
2021/10/22 23:33:47;;;;;;;5.12;1.52;;;;;;;8.61;52.88;98961.67;3994778;87;21086;-81
2021/10/22 23:39:49;;;;;;;5.33;1.65;;;;;;;8.59;52.94;98962.03;3946127;87;21090;-81
2021/10/22 23:45:50;;;;;;;9.40;1.75;;;;;;;8.57;53.19;98975.24;3931212;88;21090;-80
2021/10/22 23:51:51;;;;;;;5.85;1.80;;;;;;;8.49;53.37;98989.90;3995022;88;21026;-81
2021/10/22 23:57:52;;;;;;;7.20;1.80;;;;;;;8.39;53.60;99006.06;3941992;89;21045;-81
